createdAt,value
2024-05-09T00:01:15.648Z,2.00
2024-05-09T00:11:22.238Z,2.70
2024-05-09T00:21:25.485Z,2.50
2024-05-09T00:31:28.892Z,2.20
2024-05-09T00:41:34.454Z,3.50
2024-05-09T00:51:41.608Z,2.30
2024-05-09T01:01:46.807Z,3.50
2024-05-09T01:11:50.176Z,2.00
2024-05-09T01:21:53.451Z,2.50
2024-05-09T01:31:59.332Z,1.80
2024-05-09T01:42:03.151Z,2.30
2024-05-09T01:52:06.593Z,2.20
2024-05-09T02:02:10.825Z,2.20
2024-05-09T02:12:16.529Z,1.90
2024-05-09T02:22:19.879Z,1.70
2024-05-09T02:32:23.001Z,2.40
2024-05-09T02:42:28.543Z,3.10
2024-05-09T02:52:31.598Z,2.30
2024-05-09T03:02:34.995Z,3.30
2024-05-09T03:12:39.404Z,3.30
2024-05-09T03:22:44.680Z,3.20
2024-05-09T03:32:48.027Z,2.70
2024-05-09T03:42:54.036Z,2.90
2024-05-09T03:52:57.506Z,3.60
2024-05-09T04:03:01.141Z,2.90
2024-05-09T04:13:05.270Z,3.00
2024-05-09T04:23:11.900Z,3.00
2024-05-09T04:33:15.963Z,2.70
2024-05-09T04:43:20.704Z,2.80
2024-05-09T04:53:24.034Z,3.10
2024-05-09T05:03:27.863Z,2.40
2024-05-09T05:13:32.081Z,2.30
2024-05-09T05:23:35.491Z,4.40
2024-05-09T05:33:39.144Z,2.90
2024-05-09T05:43:42.580Z,2.00
2024-05-09T05:53:45.996Z,1.90
2024-05-09T06:03:49.798Z,2.10
2024-05-09T06:13:53.290Z,2.30
2024-05-09T06:23:56.597Z,1.50
2024-05-09T06:33:59.762Z,2.20
2024-05-09T06:44:03.195Z,1.90
2024-05-09T06:54:07.899Z,2.00
2024-05-09T07:04:11.558Z,2.20
2024-05-09T07:14:14.857Z,2.30
2024-05-09T07:24:18.220Z,2.70
2024-05-09T07:34:21.847Z,3.10
2024-05-09T07:44:25.185Z,2.90
2024-05-09T07:54:28.642Z,2.90
2024-05-09T08:04:32.037Z,1.80
2024-05-09T08:14:35.259Z,1.30
2024-05-09T08:24:38.499Z,1.20
2024-05-09T08:34:41.641Z,1.60
2024-05-09T08:44:47.570Z,1.90
2024-05-09T08:54:50.853Z,1.80
2024-05-09T09:05:02.975Z,2.30
2024-05-09T09:15:07.103Z,14.90
2024-05-09T09:25:10.406Z,1.80
2024-05-09T09:35:13.947Z,2.50
2024-05-09T09:45:17.634Z,1.30
2024-05-09T09:55:24.262Z,1.30
2024-05-09T10:05:28.038Z,3.90
2024-05-09T10:15:42.048Z,2.10
2024-05-09T10:25:55.269Z,2.30
2024-05-09T10:36:03.495Z,2.10
2024-05-09T10:46:07.439Z,1.50
2024-05-09T10:56:13.016Z,1.20
2024-05-09T11:06:16.864Z,2.20
2024-05-09T11:16:22.160Z,2.00
2024-05-09T11:26:28.671Z,1.90
2024-05-09T11:36:31.878Z,1.30
2024-05-09T11:46:35.298Z,1.30
2024-05-09T11:56:38.467Z,1.90
2024-05-09T12:06:41.574Z,2.00
2024-05-09T12:16:44.762Z,3.50
2024-05-09T12:26:48.035Z,1.80
2024-05-09T12:36:51.244Z,15.30
2024-05-09T12:46:54.676Z,1.80
2024-05-09T12:56:57.797Z,1.30
2024-05-09T13:07:01.045Z,1.50
2024-05-09T13:17:05.408Z,1.70
2024-05-09T13:27:09.656Z,1.90
2024-05-09T13:37:15.094Z,1.70
2024-05-09T13:47:19.170Z,1.70
2024-05-09T13:57:22.310Z,1.30
2024-05-09T14:07:25.635Z,1.80
2024-05-09T14:17:28.796Z,1.70
2024-05-09T14:27:34.292Z,1.70
2024-05-09T14:37:39.681Z,2.20
2024-05-09T14:47:43.137Z,1.20
2024-05-09T14:57:46.982Z,3.40
2024-05-09T15:07:50.103Z,1.80
2024-05-09T15:17:54.302Z,2.00
2024-05-09T15:27:57.916Z,1.80
2024-05-09T15:38:02.340Z,1.90
2024-05-09T15:48:07.942Z,2.10
2024-05-09T15:58:11.579Z,1.80
2024-05-09T16:08:15.349Z,1.30
2024-05-09T16:18:18.958Z,2.50
2024-05-09T16:28:24.525Z,1.50
2024-05-09T16:38:27.852Z,1.20
2024-05-09T16:48:31.488Z,2.00
2024-05-09T16:58:35.042Z,2.00
2024-05-09T17:08:41.001Z,1.90
2024-05-09T17:18:45.511Z,1.50
2024-05-09T17:28:48.997Z,1.10
2024-05-09T17:38:52.171Z,4.30
2024-05-09T17:48:57.356Z,1.70
2024-05-09T17:59:01.960Z,1.70
2024-05-09T18:09:05.667Z,1.70
2024-05-09T18:19:09.423Z,2.20
2024-05-09T18:29:13.129Z,1.60
2024-05-09T18:39:17.327Z,1.40
2024-05-09T18:49:20.837Z,2.90
2024-05-09T18:59:24.367Z,2.90
2024-05-09T19:09:27.594Z,3.30
2024-05-09T19:19:31.219Z,4.00
2024-05-09T19:29:35.016Z,3.90
2024-05-09T19:39:38.414Z,3.50
2024-05-09T19:49:41.989Z,4.60
2024-05-09T19:59:45.426Z,3.90
2024-05-09T20:09:48.756Z,4.40
2024-05-09T20:19:52.316Z,5.80
2024-05-09T20:29:56.039Z,7.30
2024-05-09T20:39:59.268Z,7.40
2024-05-09T20:50:04.114Z,8.90
2024-05-09T21:00:18.275Z,8.90
2024-05-09T21:10:22.989Z,8.90
2024-05-09T21:30:41.220Z,9.20
2024-05-09T21:40:46.024Z,11.60
2024-05-09T21:50:51.764Z,10.40
2024-05-09T22:00:55.010Z,9.90
2024-05-09T22:10:58.470Z,11.80
2024-05-09T22:21:01.794Z,10.30
2024-05-09T22:31:05.680Z,9.50
2024-05-09T22:41:08.976Z,11.50
2024-05-09T22:51:13.051Z,10.80
2024-05-09T23:01:16.400Z,11.90
2024-05-09T23:11:19.554Z,10.10
2024-05-09T23:21:23.345Z,11.60
2024-05-09T23:31:26.903Z,12.30
2024-05-09T23:41:30.349Z,14.20
2024-05-09T23:51:33.713Z,12.80
